WYB weather

Yes Bay Lodge Seaplane Base
Yes Bay, Alaska, United States

Public forecast

Using degrees Fahrenheit for public forecast. Weather courtesy of forecast.io.

Closest aviation weather report (METAR) to Yes Bay Lodge Seaplane Base

Closest report is Ketchikan International Airport, 33.8 nm (62.6 km) S. Retrieved 2019/11/19 10:53 UTC (1 hour ago):

PAKT 191053Z AUTO 31006KT 10SM BKN033 05/04 A3007

Closest aviation forecast (TAF) to Yes Bay Lodge Seaplane Base

Closest forecast is Ketchikan International Airport, 33.8 nm (62.6 km) S. Retrieved 2019/11/19 06:39 UTC (5 hours ago):

TAF PAKT 190535Z 1906/2006 VRB03KT P6SM SCT020 BKN035 TEMPO 1911/1915 SCT008 BKN035 AMD LTD TO CLD VIS AND WIND 1906/1915